createdAt,value
2019-05-15T00:00:38.628Z,11.10
2019-05-15T00:03:41.450Z,11.20
2019-05-15T00:06:45.072Z,11.10
2019-05-15T00:09:49.187Z,11.10
2019-05-15T00:12:52.317Z,11.10
2019-05-15T00:15:55.248Z,11.00
2019-05-15T00:18:59.059Z,10.80
2019-05-15T00:22:02.291Z,10.80
2019-05-15T00:25:05.407Z,10.90
2019-05-15T00:28:09.428Z,11.00
2019-05-15T00:31:12.791Z,11.10
2019-05-15T00:34:18.082Z,11.10
2019-05-15T00:37:20.532Z,11.10
2019-05-15T00:40:23.442Z,11.00
2019-05-15T00:43:28.934Z,10.90
2019-05-15T00:46:31.178Z,10.70
2019-05-15T00:49:34.098Z,10.40
2019-05-15T00:52:39.121Z,10.40
2019-05-15T00:55:42.361Z,10.70
2019-05-15T00:58:45.302Z,10.70
2019-05-15T01:01:48.759Z,10.70
2019-05-15T01:04:51.939Z,10.70
2019-05-15T01:07:55.260Z,10.70
2019-05-15T01:10:58.384Z,10.70
2019-05-15T01:14:01.482Z,10.70
2019-05-15T01:17:04.363Z,10.60
2019-05-15T01:20:08.465Z,10.70
2019-05-15T01:23:11.722Z,10.70
2019-05-15T01:26:14.629Z,10.60
2019-05-15T01:29:18.295Z,10.40
2019-05-15T01:32:21.712Z,10.50
2019-05-15T01:35:24.630Z,10.30
2019-05-15T01:38:28.021Z,10.20
2019-05-15T01:41:31.150Z,10.10
2019-05-15T01:44:34.086Z,10.10
2019-05-15T01:47:38.862Z,10.20
2019-05-15T01:50:41.821Z,10.30
2019-05-15T01:53:44.984Z,10.20
2019-05-15T01:56:49.497Z,10.20
2019-05-15T01:59:57.101Z,10.30
2019-05-15T02:02:58.722Z,10.40
2019-05-15T02:06:02.081Z,10.30
2019-05-15T02:09:08.262Z,10.10
2019-05-15T02:12:11.460Z,10.10
2019-05-15T02:15:14.616Z,10.10
2019-05-15T02:18:19.191Z,9.90
2019-05-15T02:21:22.345Z,9.80
2019-05-15T02:24:28.387Z,9.70
2019-05-15T02:27:31.610Z,9.90
2019-05-15T02:30:34.646Z,9.90
2019-05-15T02:33:39.946Z,9.90
2019-05-15T02:36:42.385Z,9.80
2019-05-15T02:39:45.560Z,9.90
2019-05-15T02:42:49.583Z,9.80
2019-05-15T02:45:52.621Z,9.90
2019-05-15T02:48:55.536Z,9.70
2019-05-15T02:52:00.144Z,9.80
2019-05-15T02:55:03.660Z,9.80
2019-05-15T02:58:09.647Z,9.60
2019-05-15T03:01:11.393Z,9.70
2019-05-15T03:04:14.320Z,9.60
2019-05-15T03:07:19.296Z,9.40
2019-05-15T03:10:22.047Z,9.30
2019-05-15T03:13:25.083Z,9.40
2019-05-15T03:16:30.337Z,9.40
2019-05-15T03:19:32.810Z,9.40
2019-05-15T03:22:35.722Z,9.40
2019-05-15T03:25:40.540Z,9.40
2019-05-15T03:28:44.586Z,9.40
2019-05-15T03:32:01.343Z,9.40
2019-05-15T03:34:56.043Z,9.40
2019-05-15T03:37:59.842Z,9.30
2019-05-15T03:41:01.955Z,9.40
2019-05-15T03:44:04.861Z,9.50
2019-05-15T03:47:09.239Z,9.40
2019-05-15T03:50:13.405Z,9.30
2019-05-15T03:53:18.950Z,9.20
2019-05-15T03:56:21.484Z,9.20
2019-05-15T03:59:24.409Z,9.20
2019-05-15T04:02:28.789Z,9.20
2019-05-15T04:05:32.006Z,9.20
2019-05-15T04:08:34.900Z,9.20
2019-05-15T04:11:38.872Z,9.20
2019-05-15T04:14:41.926Z,9.20
2019-05-15T04:17:44.848Z,9.20
2019-05-15T04:20:49.304Z,9.10
2019-05-15T04:23:58.588Z,9.20
2019-05-15T04:27:06.401Z,9.20
2019-05-15T04:30:10.544Z,9.20
2019-05-15T04:33:13.103Z,9.20
2019-05-15T04:36:18.913Z,9.20
2019-05-15T04:39:20.963Z,9.20
2019-05-15T04:42:23.871Z,9.10
2019-05-15T04:45:31.789Z,9.10
2019-05-15T04:48:31.632Z,9.10
2019-05-15T04:51:34.529Z,9.10
2019-05-15T04:54:40.218Z,9.10
2019-05-15T04:57:42.263Z,8.80
2019-05-15T05:00:55.171Z,8.90
2019-05-15T05:03:58.903Z,8.80
2019-05-15T05:07:02.598Z,9.10
2019-05-15T05:10:09.171Z,9.20
2019-05-15T05:13:10.833Z,9.10
2019-05-15T05:16:13.736Z,9.20
2019-05-15T05:19:19.364Z,9.30
2019-05-15T05:22:21.457Z,9.30
2019-05-15T05:25:24.387Z,9.30
2019-05-15T05:28:28.974Z,9.40
2019-05-15T05:31:32.125Z,9.40
2019-05-15T05:34:35.058Z,9.40
2019-05-15T05:37:38.929Z,9.40
2019-05-15T05:40:42.793Z,9.60
2019-05-15T05:43:48.581Z,9.50
2019-05-15T05:46:50.940Z,9.60
2019-05-15T05:49:53.845Z,9.60
2019-05-15T05:52:57.928Z,9.60
2019-05-15T05:56:01.002Z,9.70
2019-05-15T05:59:03.908Z,9.80
2019-05-15T06:02:08.214Z,9.80
2019-05-15T06:05:11.372Z,9.90
2019-05-15T06:08:14.306Z,9.90
2019-05-15T06:11:18.421Z,9.80
2019-05-15T06:14:21.855Z,9.90
2019-05-15T06:17:24.775Z,9.90
2019-05-15T06:20:28.264Z,9.90
2019-05-15T06:23:34.724Z,9.90
2019-05-15T06:26:38.627Z,9.90
2019-05-15T06:29:41.722Z,10.10
2019-05-15T06:33:00.789Z,10.10
2019-05-15T06:35:49.478Z,10.10
2019-05-15T06:38:52.363Z,10.20
2019-05-15T06:41:55.282Z,10.20
2019-05-15T06:44:58.901Z,10.30
2019-05-15T06:48:02.031Z,10.40
2019-05-15T06:51:04.928Z,10.30
2019-05-15T06:54:08.787Z,10.50
2019-05-15T06:57:11.874Z,10.50
2019-05-15T07:00:14.768Z,10.60
2019-05-15T07:03:24.956Z,10.70
2019-05-15T07:06:22.547Z,10.80
2019-05-15T07:09:25.522Z,10.90
2019-05-15T07:12:28.425Z,11.10
2019-05-15T07:15:31.687Z,11.20
2019-05-15T07:18:34.612Z,11.40
2019-05-15T07:21:38.781Z,11.60
2019-05-15T07:24:41.947Z,11.70
2019-05-15T07:27:44.851Z,11.80
2019-05-15T07:30:49.573Z,11.90
2019-05-15T07:33:52.786Z,11.80
2019-05-15T07:36:55.704Z,11.80
2019-05-15T07:39:59.194Z,12.00
2019-05-15T07:43:03.781Z,12.10
2019-05-15T07:46:08.421Z,12.20
2019-05-15T07:49:11.517Z,12.20
2019-05-15T07:52:14.795Z,12.30
2019-05-15T07:55:18.562Z,12.50
2019-05-15T07:58:22.112Z,12.60
2019-05-15T08:01:25.620Z,12.60
2019-05-15T08:04:30.660Z,12.60
2019-05-15T08:07:33.372Z,12.70
2019-05-15T08:10:36.329Z,12.70
2019-05-15T08:13:39.518Z,12.80
2019-05-15T08:16:42.448Z,12.90
2019-05-15T08:19:45.708Z,13.00
2019-05-15T08:25:53.444Z,13.20
2019-05-15T08:26:05.671Z,13.20
2019-05-15T08:28:57.942Z,13.20
2019-05-15T08:32:01.013Z,13.30
2019-05-15T08:35:05.080Z,13.40
2019-05-15T08:38:08.865Z,13.40
2019-05-15T08:41:12.019Z,13.60
2019-05-15T08:44:14.963Z,13.60
2019-05-15T08:47:19.123Z,13.60
2019-05-15T08:50:22.704Z,13.70
2019-05-15T08:53:25.623Z,13.70
2019-05-15T08:56:29.065Z,13.70
2019-05-15T08:59:33.444Z,13.90
2019-05-15T09:02:38.276Z,13.90
2019-05-15T09:05:41.455Z,13.90
2019-05-15T09:08:44.380Z,14.00
2019-05-15T09:11:48.300Z,14.20
2019-05-15T09:14:51.825Z,14.20
2019-05-15T09:18:08.039Z,14.30
2019-05-15T09:20:59.611Z,14.50
2019-05-15T09:24:02.617Z,14.50
2019-05-15T09:27:09.435Z,14.60
2019-05-15T09:30:11.460Z,14.50
2019-05-15T09:33:14.384Z,14.60
2019-05-15T09:36:20.133Z,14.70
2019-05-15T09:39:22.477Z,14.70
2019-05-15T09:42:25.381Z,14.80
2019-05-15T09:45:28.642Z,14.90
2019-05-15T09:48:31.997Z,15.00
2019-05-15T09:51:34.920Z,15.20
2019-05-15T09:54:38.742Z,15.30
2019-05-15T09:57:41.858Z,15.30
2019-05-15T10:00:44.873Z,15.40
2019-05-15T10:03:48.494Z,15.50
2019-05-15T10:06:51.621Z,15.60
2019-05-15T10:09:54.539Z,15.20
2019-05-15T10:12:59.439Z,15.30
2019-05-15T10:16:02.604Z,15.60
2019-05-15T10:19:05.533Z,15.70
2019-05-15T10:22:09.659Z,15.90
2019-05-15T10:25:13.143Z,15.90
2019-05-15T10:28:18.754Z,16.10
2019-05-15T10:31:21.538Z,16.10
2019-05-15T10:34:24.500Z,16.30
2019-05-15T10:37:28.427Z,16.30
2019-05-15T10:40:31.556Z,16.50
2019-05-15T10:43:35.292Z,16.50
2019-05-15T10:46:38.359Z,16.50
2019-05-15T10:49:41.319Z,16.60
2019-05-15T10:52:44.239Z,16.70
2019-05-15T10:55:49.571Z,16.70
2019-05-15T10:58:52.315Z,16.90
2019-05-15T11:01:55.224Z,17.00
2019-05-15T11:04:58.500Z,17.10
2019-05-15T11:08:01.407Z,17.20
2019-05-15T11:11:04.329Z,17.20
2019-05-15T11:14:09.098Z,17.10
2019-05-15T11:17:12.074Z,17.20
2019-05-15T11:20:15.606Z,17.40
2019-05-15T11:23:19.906Z,17.40
2019-05-15T11:26:23.341Z,17.50
2019-05-15T11:29:26.262Z,17.80
2019-05-15T11:32:29.484Z,17.80
2019-05-15T11:35:32.616Z,17.90
2019-05-15T11:38:37.989Z,17.90
2019-05-15T11:41:40.376Z,18.00
2019-05-15T11:44:43.376Z,18.10
2019-05-15T11:47:48.305Z,18.20
2019-05-15T11:50:51.142Z,18.20
2019-05-15T11:53:54.415Z,18.30
2019-05-15T11:56:59.648Z,18.40
2019-05-15T12:00:03.763Z,18.40
2019-05-15T12:03:08.964Z,18.20
2019-05-15T12:06:18.494Z,18.30
2019-05-15T12:09:18.748Z,18.50
2019-05-15T12:12:21.816Z,18.60
2019-05-15T12:15:24.732Z,18.80
2019-05-15T12:18:28.571Z,18.90
2019-05-15T12:21:32.059Z,19.00
2019-05-15T12:24:36.758Z,18.90
2019-05-15T12:27:40.509Z,19.00
2019-05-15T12:30:43.622Z,19.10
2019-05-15T12:33:48.878Z,19.10
2019-05-15T12:36:57.448Z,19.20
2019-05-15T13:01:31.581Z,19.60
2019-05-15T13:04:34.498Z,19.60
2019-05-15T13:07:37.917Z,19.60
2019-05-15T13:10:40.988Z,19.80
2019-05-15T13:13:44.353Z,19.90
2019-05-15T13:16:48.021Z,19.90
2019-05-15T13:19:51.500Z,20.00
2019-05-15T13:22:54.398Z,20.00
2019-05-15T13:25:59.389Z,19.90
2019-05-15T13:29:02.470Z,20.00
2019-05-15T13:32:07.904Z,19.80
2019-05-15T13:35:10.819Z,19.90
2019-05-15T13:38:13.753Z,19.90
2019-05-15T13:41:19.021Z,20.10
2019-05-15T13:44:21.628Z,20.20
2019-05-15T13:47:24.563Z,20.10
2019-05-15T13:50:28.486Z,20.30
2019-05-15T13:53:31.600Z,20.40
2019-05-15T13:56:34.529Z,20.40
2019-05-15T13:59:39.083Z,20.50
2019-05-15T14:02:42.272Z,20.50
2019-05-15T14:05:49.767Z,20.30
2019-05-15T14:08:51.651Z,20.40
2019-05-15T14:11:54.579Z,20.50
2019-05-15T14:14:58.897Z,20.50
2019-05-15T14:18:01.825Z,20.70
2019-05-15T14:21:04.814Z,20.80
2019-05-15T14:24:08.955Z,20.20
2019-05-15T14:27:12.168Z,20.20
2019-05-15T14:30:18.051Z,20.80
2019-05-15T14:33:20.362Z,20.80
2019-05-15T14:36:23.303Z,20.40
2019-05-15T14:39:26.217Z,20.30
2019-05-15T14:42:29.467Z,20.50
2019-05-15T14:45:32.509Z,20.40
2019-05-15T14:48:35.488Z,20.50
2019-05-15T14:51:39.110Z,20.60
2019-05-15T14:54:42.344Z,20.90
2019-05-15T14:57:45.277Z,20.70
2019-05-15T15:00:50.022Z,20.60
2019-05-15T15:03:53.687Z,20.00
2019-05-15T15:06:57.988Z,20.20
2019-05-15T15:10:01.467Z,20.20
2019-05-15T15:13:04.388Z,20.20
2019-05-15T15:16:08.372Z,20.20
2019-05-15T15:19:11.646Z,20.40
2019-05-15T15:22:14.524Z,20.30
2019-05-15T15:25:17.444Z,19.40
2019-05-15T15:28:20.702Z,18.80
2019-05-15T15:31:23.661Z,18.40
2019-05-15T15:34:28.245Z,18.70
2019-05-15T15:37:32.499Z,18.90
2019-05-15T15:40:35.429Z,19.00
2019-05-15T15:43:38.817Z,19.10
2019-05-15T15:46:41.852Z,19.20
2019-05-15T15:49:44.875Z,19.30
2019-05-15T15:52:48.871Z,19.10
2019-05-15T15:55:52.101Z,18.70
2019-05-15T15:58:55.327Z,18.40
2019-05-15T16:01:59.895Z,17.90
2019-05-15T16:05:03.490Z,17.60
2019-05-15T16:08:08.517Z,17.40
2019-05-15T16:11:11.645Z,17.50
2019-05-15T16:14:14.899Z,17.60
2019-05-15T16:17:18.283Z,17.60
2019-05-15T16:20:21.245Z,17.70
2019-05-15T16:23:24.138Z,17.70
2019-05-15T16:26:29.045Z,17.60
2019-05-15T16:29:32.277Z,17.40
2019-05-15T16:32:35.496Z,17.30
2019-05-15T16:35:38.411Z,17.10
2019-05-15T16:38:41.367Z,17.10
2019-05-15T16:41:44.310Z,17.10
2019-05-15T16:44:49.017Z,17.60
2019-05-15T16:47:52.085Z,18.70
2019-05-15T16:50:55.019Z,18.90
2019-05-15T16:53:58.194Z,18.80
2019-05-15T16:57:01.253Z,18.70
2019-05-15T17:00:04.756Z,18.80
2019-05-15T17:03:13.904Z,18.90
2019-05-15T17:06:12.615Z,19.20
2019-05-15T17:09:21.070Z,19.10
2019-05-15T17:12:20.379Z,19.20
2019-05-15T17:15:23.294Z,19.10
2019-05-15T17:18:26.907Z,19.20
2019-05-15T17:21:29.903Z,19.30
2019-05-15T17:24:32.807Z,18.60
2019-05-15T17:27:36.476Z,17.90
2019-05-15T17:30:39.390Z,17.60
2019-05-15T17:33:43.765Z,17.50
2019-05-15T17:36:48.871Z,17.30
2019-05-15T17:39:51.537Z,17.00
2019-05-15T17:42:54.483Z,17.10
2019-05-15T17:45:58.445Z,17.10
2019-05-15T17:49:08.222Z,16.90
2019-05-15T17:52:06.264Z,16.90
2019-05-15T17:55:10.088Z,16.90
2019-05-15T17:58:13.008Z,16.90
2019-05-15T18:01:15.933Z,16.80
2019-05-15T18:04:19.157Z,16.80
2019-05-15T18:07:22.252Z,16.80
2019-05-15T18:10:25.276Z,16.70
2019-05-15T18:13:28.762Z,16.60
2019-05-15T18:16:32.320Z,16.60
2019-05-15T18:19:37.691Z,16.70
2019-05-15T18:22:40.417Z,16.60
2019-05-15T18:25:43.422Z,16.50
2019-05-15T18:28:48.762Z,16.50
2019-05-15T18:31:51.298Z,16.40
2019-05-15T18:34:54.613Z,16.20
2019-05-15T18:37:59.188Z,16.20
2019-05-15T18:41:03.873Z,16.10
2019-05-15T18:44:06.998Z,16.10
2019-05-15T18:47:10.750Z,16.00
2019-05-15T18:50:14.401Z,15.90
2019-05-15T18:53:17.325Z,15.90
2019-05-15T18:56:20.968Z,15.80
2019-05-15T18:59:24.016Z,16.20
2019-05-15T19:02:28.088Z,15.80
2019-05-15T19:05:31.167Z,15.80
2019-05-15T19:08:34.096Z,15.40
2019-05-15T19:11:38.420Z,15.20
2019-05-15T19:14:41.527Z,14.90
2019-05-15T19:17:44.854Z,14.80
2019-05-15T19:20:48.650Z,15.10
2019-05-15T19:23:51.669Z,14.90
2019-05-15T19:26:54.681Z,14.60
2019-05-15T19:29:59.056Z,14.60
2019-05-15T19:33:02.251Z,14.60
2019-05-15T19:36:07.762Z,14.50
2019-05-15T19:39:11.358Z,14.50
2019-05-15T19:42:14.439Z,14.50
2019-05-15T19:45:18.192Z,14.30
2019-05-15T19:48:21.225Z,14.40
2019-05-15T19:51:24.172Z,14.50
2019-05-15T19:54:28.892Z,14.40
2019-05-15T19:57:32.020Z,14.30
2019-05-15T20:00:35.126Z,14.50
2019-05-15T20:03:49.345Z,14.40
2019-05-15T20:06:44.742Z,14.00
2019-05-15T20:09:47.791Z,14.00
2019-05-15T20:12:50.985Z,13.80
2019-05-15T20:15:54.084Z,13.70
2019-05-15T20:18:58.118Z,13.80
2019-05-15T20:22:01.563Z,14.00
2019-05-15T20:25:08.274Z,14.00
2019-05-15T20:28:11.907Z,13.90
2019-05-15T20:31:15.116Z,14.00
2019-05-15T20:34:18.136Z,13.80
2019-05-15T20:37:21.174Z,13.50
2019-05-15T20:40:24.352Z,13.30
2019-05-15T20:43:28.010Z,13.20
2019-05-15T20:46:31.321Z,13.00
2019-05-15T20:49:34.244Z,13.20
2019-05-15T20:52:39.374Z,13.50
2019-05-15T20:55:43.219Z,13.20
2019-05-15T20:58:47.846Z,13.10
2019-05-15T21:01:51.311Z,13.30
2019-05-15T21:04:54.499Z,13.30
2019-05-15T21:07:57.665Z,13.30
2019-05-15T21:11:00.649Z,13.30
2019-05-15T21:14:03.853Z,13.30
2019-05-15T21:17:08.267Z,13.30
2019-05-15T21:20:12.059Z,13.30
2019-05-15T21:23:14.969Z,13.30
2019-05-15T21:26:18.763Z,13.10
2019-05-15T21:29:21.989Z,13.40
2019-05-15T21:32:25.232Z,13.40
2019-05-15T21:35:30.392Z,13.20
2019-05-15T21:38:33.338Z,13.30
2019-05-15T21:41:38.514Z,13.40
2019-05-15T21:44:41.099Z,13.50
2019-05-15T21:47:44.033Z,13.50
2019-05-15T21:50:48.317Z,13.30
2019-05-15T21:53:51.497Z,13.30
2019-05-15T21:57:06.653Z,13.30
2019-05-15T22:00:00.670Z,13.10
2019-05-15T22:03:05.200Z,13.20
2019-05-15T22:06:08.740Z,13.10
2019-05-15T22:09:18.260Z,13.20
2019-05-15T22:12:21.242Z,13.30
2019-05-15T22:15:24.270Z,13.40
2019-05-15T22:18:28.041Z,13.30
2019-05-15T22:21:31.764Z,13.20
2019-05-15T22:24:35.008Z,13.10
2019-05-15T22:27:38.449Z,13.10
2019-05-15T22:30:41.469Z,13.10
2019-05-15T22:33:44.371Z,13.00
2019-05-15T22:36:50.541Z,12.90
2019-05-15T22:39:53.311Z,12.80
2019-05-15T22:42:58.849Z,12.70
2019-05-15T22:46:01.103Z,12.20
2019-05-15T22:49:04.001Z,12.30
2019-05-15T22:52:08.549Z,12.30
2019-05-15T22:55:12.345Z,12.20
2019-05-15T22:58:15.570Z,12.00
2019-05-15T23:01:18.918Z,12.00
2019-05-15T23:04:23.212Z,12.00
2019-05-15T23:07:28.109Z,12.20
2019-05-15T23:10:31.563Z,12.30
2019-05-15T23:13:34.486Z,12.40
2019-05-15T23:16:39.085Z,12.50
2019-05-15T23:19:42.230Z,12.60
2019-05-15T23:22:45.162Z,12.40
2019-05-15T23:25:49.181Z,12.30
2019-05-15T23:28:52.150Z,12.40
2019-05-15T23:31:55.050Z,12.40
2019-05-15T23:34:58.458Z,12.30
2019-05-15T23:38:01.471Z,12.20
2019-05-15T23:41:04.402Z,12.40
2019-05-15T23:44:08.261Z,12.30
2019-05-15T23:47:11.328Z,12.20
2019-05-15T23:50:14.611Z,12.40
2019-05-15T23:53:19.581Z,12.30
2019-05-15T23:56:22.849Z,12.30
2019-05-15T23:59:28.064Z,12.40
